Datos. Málaga, Centro Meteorológico

Actualizado: miércoles, 04 marzo 2015 a las 08:32 hora oficial
Ind. climatológico: 6156X -  Altitud (m): 54
Latitud36° 43' 4'' N - Longitud4° 28' 54'' O -  PosiciónVer localización
MunicipioMálaga (Málaga) - Ver predicción
Registros - de
Fecha y hora oficial

 

Temp. (°C)

 

V. vien. (km/h)

 

Dir. viento

 

Racha (km/h)

 

Dir. racha

 

Prec. (mm)

 

Presión (hPa)

 

Tend. (hPa)

 

Humedad (%)

 

04/03/2015 08:00 16.0 12 8-OesteOeste 25 9-NoroesteNoroeste 0.0 1018.6 0.6 80
04/03/2015 07:00 15.8 10 8-OesteOeste 25 9-NoroesteNoroeste 0.0 1018.4 0.4 80
04/03/2015 06:00 16.1 12 8-OesteOeste 23 8-OesteOeste 0.0 1018.1 -0.1 79
04/03/2015 05:00 16.1 11 9-NoroesteNoroeste 21 8-OesteOeste 0.0 1018.0 -0.3 79
04/03/2015 04:00 16.5 8 9-NoroesteNoroeste 23 8-OesteOeste 0.0 1018.0 -0.3 77
04/03/2015 03:00 17.1 9 9-NoroesteNoroeste 22 8-OesteOeste 0.0 1018.2 0.0 76
04/03/2015 02:00 17.4 10 8-OesteOeste 25 8-OesteOeste 0.0 1018.3 0.0 73
04/03/2015 01:00 18.2 15 8-OesteOeste 29 8-OesteOeste 0.0 1018.3 0.4 70
04/03/2015 00:00 18.9 16 8-OesteOeste 26 9-NoroesteNoroeste 0.0 1018.2 0.6 68
03/03/2015 23:00 19.3 10 8-OesteOeste 26 8-OesteOeste 0.0 1018.3 1.1 65
03/03/2015 22:00 20.6 14 9-NoroesteNoroeste 23 9-NoroesteNoroeste 0.0 1017.9 1.5 61
03/03/2015 21:00 19.9 4 9-NoroesteNoroeste 11 9-NoroesteNoroeste 0.0 1017.6 1.6 61
03/03/2015 20:00 18.6 2 8-OesteOeste 5 8-OesteOeste 0.0 1017.2 1.2 73
03/03/2015 19:00 19.7 3 5-SudesteSudeste 8 5-SudesteSudeste 0.0 1016.4 0.1 66
03/03/2015 18:00 20.6 6 5-SudesteSudeste 13 5-SudesteSudeste 0.0 1016.0 -0.8 64
03/03/2015 17:00 21.3 8 5-SudesteSudeste 14 5-SudesteSudeste 0.0 1016.0 -1.5 61
03/03/2015 16:00 21.6 9 5-SudesteSudeste 17 5-SudesteSudeste 0.0 1016.3 -2.1 59
03/03/2015 15:00 20.5 10 5-SudesteSudeste 16 5-SudesteSudeste 0.0 1016.8 -2.2 62
03/03/2015 14:00 21.0 8 5-SudesteSudeste 15 6-SurSur 0.0 1017.5 -1.0 62
03/03/2015 13:00 19.9 11 5-SudesteSudeste 18 5-SudesteSudeste 0.0 1018.4 -0.2 67
03/03/2015 12:00 20.0 12 5-SudesteSudeste 20 5-SudesteSudeste 0.0 1019.0 0.4 64
03/03/2015 11:00 21.1 12 8-OesteOeste 20 9-NoroesteNoroeste 0.0 1018.5 0.4 58
03/03/2015 10:00 18.9 7 8-OesteOeste 14 8-OesteOeste 0.0 1018.6 0.9 64
03/03/2015 09:00 15.5 6 9-NoroesteNoroeste 10 9-NoroesteNoroeste 0.0 1018.6 1.3 74
First Page First Page First Page Last Page
Lineas por página
Página   de  
Compartir:  
En esta página podrá acceder, en forma gráfica y en tabla, a las observaciones horarias de las últimas 24 horas, así como a los valores extremos y acumulados desde las 00 horas del día hasta la hora de actualización indicada, obtenidos en la red de estaciones de AEMET. También podrá acceder a los resúmenes diarios de estas estaciones en los últimos 7 días.

En el mapa aparecen estaciones con valor númerico y otras representadas por un punto. En las primeras, al pasar el ratón, aparece un desplegable con la información completa de la estación. Las estaciones representadas por un punto son estaciones de la red climatológica, con transmisión de datos superior a la hora, por lo que al seleccionarlas pueden no aparecer los últimos datos.

Los datos presentados han sido únicamente sometidos a controles automáticos de calidad en tiempo real, por lo que no puede garantizarse la ausencia de errores.
© AEMET. Autorizado el uso de la información y su reproducción citando a AEMET como autora de la misma.